Time;durP1;ratioP1;P1;durP2;ratioP2;P2;SDS_P1;SDS_P2;PMS_P1;PMS_P2;Temp;Humidity;BMP_temperature;BMP_pressure;BME280_temperature;BME280_humidity;BME280_pressure;Samples;Min_cycle;Max_cycle;Signal;HPM_P1;HPM_P2
2022/11/09 00:00:38;;;;;;;6.63;2.53;;;13.20;76.90;;;;;;5034895;28;20041;-72
2022/11/09 00:03:04;;;;;;;4.20;2.42;;;13.20;76.50;;;;;;5059438;28;20044;-72
2022/11/09 00:05:29;;;;;;;4.78;2.10;;;13.30;76.60;;;;;;5059800;28;20134;-71
2022/11/09 00:07:55;;;;;;;4.63;1.92;;;13.20;76.50;;;;;;5039489;28;20510;-72
2022/11/09 00:10:20;;;;;;;6.53;2.22;;;13.30;76.60;;;;;;5056615;28;20511;-72
2022/11/09 00:12:46;;;;;;;3.67;1.83;;;13.20;77.00;;;;;;5075710;28;20040;-71
2022/11/09 00:15:12;;;;;;;7.82;2.60;;;13.20;76.60;;;;;;5059708;28;20043;-72
2022/11/09 00:17:37;;;;;;;8.10;3.67;;;13.20;76.70;;;;;;5055233;28;20036;-71
2022/11/09 00:20:04;;;;;;;6.47;2.63;;;13.20;76.70;;;;;;5059266;28;20088;-71
2022/11/09 00:22:29;;;;;;;5.05;2.42;;;13.20;76.70;;;;;;5058661;28;20055;-72
2022/11/09 00:24:55;;;;;;;6.82;2.67;;;13.20;76.70;;;;;;5059271;28;20036;-71
2022/11/09 00:27:20;;;;;;;4.75;2.45;;;13.20;76.70;;;;;;5055956;28;20133;-77
2022/11/09 00:29:46;;;;;;;5.35;2.45;;;13.20;76.70;;;;;;5065020;28;20047;-77
2022/11/09 00:32:12;;;;;;;5.95;2.47;;;13.20;76.80;;;;;;5076091;28;20506;-77
2022/11/09 00:34:37;;;;;;;6.43;2.20;;;13.20;77.30;;;;;;5071259;28;20494;-77
2022/11/09 00:37:03;;;;;;;9.05;2.53;;;13.20;77.00;;;;;;5072488;28;20032;-77
2022/11/09 00:39:29;;;;;;;6.13;2.67;;;13.20;77.00;;;;;;5074711;28;20032;-72
2022/11/09 00:41:54;;;;;;;7.28;2.08;;;13.20;77.00;;;;;;5075713;28;20065;-72
2022/11/09 00:44:20;;;;;;;8.93;2.38;;;13.20;77.00;;;;;;5058721;28;20052;-72
2022/11/09 00:46:46;;;;;;;8.60;2.58;;;13.20;77.00;;;;;;5056499;28;20056;-71
2022/11/09 00:49:11;;;;;;;7.80;2.75;;;13.20;76.90;;;;;;5088720;28;20036;-72
2022/11/09 00:51:37;;;;;;;10.00;2.42;;;13.20;76.90;;;;;;5075395;28;20040;-71
2022/11/09 00:54:03;;;;;;;6.93;2.15;;;13.20;76.80;;;;;;5055286;28;20071;-71
2022/11/09 00:56:28;;;;;;;5.95;2.03;;;13.20;76.70;;;;;;5055781;28;20036;-72
2022/11/09 00:58:55;;;;;;;5.63;2.25;;;13.20;76.70;;;;;;5071010;28;20455;-72
2022/11/09 01:01:21;;;;;;;9.40;3.30;;;13.20;76.60;;;;;;5075181;28;20123;-72
2022/11/09 01:03:47;;;;;;;6.95;2.00;;;13.20;76.50;;;;;;5075027;28;20040;-72
2022/11/09 01:06:21;;;;;;;8.30;2.50;;;13.20;76.50;;;;;;5075201;28;20051;-72
2022/11/09 01:08:47;;;;;;;;;;;13.20;76.40;;;;;;5085318;28;20048;-72
2022/11/09 01:11:13;;;;;;;8.43;2.00;;;13.20;76.30;;;;;;5058178;28;20390;-72
2022/11/09 01:13:39;;;;;;;6.25;2.22;;;13.20;76.40;;;;;;5074741;28;20043;-72
2022/11/09 01:16:14;;;;;;;8.27;2.13;;;13.20;76.30;;;;;;5075116;28;20558;-72
2022/11/09 01:18:40;;;;;;;10.43;2.20;;;13.20;76.30;;;;;;5068407;28;20041;-72
2022/11/09 01:21:08;;;;;;;8.10;3.28;;;13.20;76.30;;;;;;5075211;28;20036;-72
2022/11/09 01:23:34;;;;;;;7.57;2.17;;;13.20;76.30;;;;;;5074411;28;20380;-72
2022/11/09 01:26:03;;;;;;;8.32;2.13;;;13.20;76.20;;;;;;5058277;28;20048;-72
2022/11/09 01:28:28;;;;;;;5.85;1.90;;;13.20;76.20;;;;;;5057955;28;20514;-72
2022/11/09 01:30:54;;;;;;;8.90;2.38;;;13.20;76.20;;;;;;5074267;28;20032;-72
2022/11/09 01:33:21;;;;;;;9.43;2.42;;;13.20;76.20;;;;;;5073474;28;20043;-72
2022/11/09 01:35:46;;;;;;;7.65;2.08;;;13.20;76.20;;;;;;5057927;28;20064;-72
2022/11/09 01:38:12;;;;;;;7.60;2.10;;;13.10;76.10;;;;;;5074273;28;20078;-72
2022/11/09 01:40:39;;;;;;;6.97;2.83;;;13.20;76.20;;;;;;5060882;28;20032;-72
2022/11/09 01:43:13;;;;;;;9.25;2.22;;;13.20;76.30;;;;;;5074317;28;20043;-72
2022/11/09 01:45:41;;;;;;;6.85;2.58;;;13.20;76.30;;;;;;5062916;28;20047;-72
2022/11/09 01:48:17;;;;;;;6.05;2.10;;;13.20;76.30;;;;;;5074736;28;20036;-72
2022/11/09 01:50:55;;;;;;;5.90;2.50;;;13.20;76.20;;;;;;5075156;28;20051;-72
2022/11/09 01:53:26;;;;;;;9.40;2.33;;;13.20;76.10;;;;;;5074224;28;20047;-72
2022/11/09 01:55:56;;;;;;;8.63;3.15;;;13.10;76.00;;;;;;5074602;28;20078;-72
2022/11/09 01:58:29;;;;;;;10.60;2.35;;;13.20;75.90;;;;;;5060214;28;20040;-72
2022/11/09 02:00:57;;;;;;;8.43;2.10;;;13.20;75.80;;;;;;5059556;28;20048;-72
2022/11/09 02:03:33;;;;;;;7.28;1.88;;;13.20;75.80;;;;;;5074158;28;20115;-73
2022/11/09 02:06:03;;;;;;;7.22;2.20;;;13.20;75.70;;;;;;5054881;28;20044;-72
2022/11/09 02:08:29;;;;;;;8.48;2.45;;;13.20;75.70;;;;;;5068673;28;20150;-72
2022/11/09 02:11:12;;;;;;;7.72;2.38;;;13.20;75.60;;;;;;5073281;28;20047;-72
2022/11/09 02:13:41;;;;;;;8.95;2.00;;;13.20;75.50;;;;;;5074282;28;20119;-72
2022/11/09 02:16:09;;;;;;;6.40;2.03;;;13.10;75.50;;;;;;5074911;28;20123;-72
2022/11/09 02:18:38;;;;;;;9.55;2.50;;;13.10;75.40;;;;;;5074628;28;20101;-72
2022/11/09 02:21:04;;;;;;;8.07;2.10;;;13.10;75.40;;;;;;5073808;28;20046;-72
2022/11/09 02:23:30;;;;;;;3.97;1.48;;;13.10;75.30;;;;;;5073991;28;20056;-72
2022/11/09 02:26:22;;;;;;;7.65;2.15;;;13.10;75.30;;;;;;5074175;28;20044;-72
2022/11/09 02:28:48;;;;;;;6.82;1.73;;;13.10;75.20;;;;;;5074134;28;20047;-72
2022/11/09 02:31:16;;;;;;;12.40;2.67;;;13.10;75.30;;;;;;5070826;28;20510;-72
2022/11/09 02:33:54;;;;;;;11.30;3.13;;;13.10;75.20;;;;;;5073082;28;20048;-72
2022/11/09 02:36:22;;;;;;;9.07;2.35;;;13.10;75.20;;;;;;5074419;28;20044;-72
2022/11/09 02:38:49;;;;;;;11.15;2.85;;;13.10;75.30;;;;;;5072087;28;20050;-72
2022/11/09 02:41:16;;;;;;;5.32;1.75;;;13.10;75.20;;;;;;5073685;28;20028;-72
2022/11/09 02:43:41;;;;;;;6.32;2.15;;;13.00;75.20;;;;;;5090856;28;20056;-72
2022/11/09 02:46:07;;;;;;;11.32;2.45;;;13.00;75.20;;;;;;5060202;28;20047;-72
2022/11/09 02:48:33;;;;;;;8.98;2.53;;;13.00;75.20;;;;;;5077774;28;20123;-72
2022/11/09 02:50:58;;;;;;;7.40;1.90;;;13.00;75.20;;;;;;5041501;28;20041;-72
2022/11/09 02:53:24;;;;;;;7.55;1.92;;;12.90;75.10;;;;;;5077514;28;20040;-72
2022/11/09 02:55:49;;;;;;;12.05;3.42;;;13.00;75.20;;;;;;5060689;28;20036;-72
2022/11/09 02:58:16;;;;;;;13.05;2.63;;;12.90;75.10;;;;;;5061099;28;20394;-72
2022/11/09 03:00:41;;;;;;;11.60;2.60;;;12.90;75.10;;;;;;5077573;28;20476;-72
2022/11/09 03:03:07;;;;;;;8.77;2.00;;;12.90;75.10;;;;;;5077464;28;20042;-72
2022/11/09 03:05:32;;;;;;;6.53;1.85;;;12.90;75.10;;;;;;5060393;28;20406;-72
2022/11/09 03:08:01;;;;;;;7.82;2.03;;;12.90;75.10;;;;;;5077717;28;20044;-72
2022/11/09 03:10:27;;;;;;;8.68;1.80;;;12.80;75.10;;;;;;5076691;28;20315;-72
2022/11/09 03:12:54;;;;;;;5.47;1.70;;;12.80;75.10;;;;;;5056960;28;20047;-72
2022/11/09 03:15:19;;;;;;;11.60;2.25;;;12.80;75.10;;;;;;5058762;28;20036;-72
2022/11/09 03:17:45;;;;;;;8.43;2.42;;;12.80;75.10;;;;;;5077308;28;20047;-72
2022/11/09 03:20:12;;;;;;;9.63;2.22;;;12.80;75.00;;;;;;5076561;28;20376;-72
2022/11/09 03:22:38;;;;;;;9.13;2.10;;;12.80;75.00;;;;;;5072852;28;20045;-72
2022/11/09 03:25:04;;;;;;;13.05;2.47;;;12.80;75.00;;;;;;5073496;28;20134;-72
2022/11/09 03:27:30;;;;;;;10.30;2.63;;;12.80;75.00;;;;;;5073721;28;20044;-72
2022/11/09 03:29:55;;;;;;;8.43;2.13;;;12.70;74.90;;;;;;5056920;28;20539;-72
2022/11/09 03:32:21;;;;;;;7.28;2.28;;;12.70;75.30;;;;;;5073700;28;20427;-72
2022/11/09 03:34:48;;;;;;;7.85;2.40;;;12.70;74.90;;;;;;5056714;28;20045;-72
2022/11/09 03:37:13;;;;;;;11.43;2.65;;;12.70;74.90;;;;;;5070071;28;20094;-72
2022/11/09 03:39:39;;;;;;;7.35;1.92;;;12.70;75.00;;;;;;5053800;28;20037;-72
2022/11/09 03:42:05;;;;;;;9.32;2.10;;;12.70;75.00;;;;;;5053964;28;20458;-72
2022/11/09 03:44:30;;;;;;;9.68;2.10;;;12.70;75.10;;;;;;5073091;28;20040;-72
2022/11/09 03:46:56;;;;;;;8.80;1.60;;;12.70;75.10;;;;;;5073316;28;20062;-72
2022/11/09 03:49:24;;;;;;;7.63;1.83;;;12.70;75.50;;;;;;5061018;28;20477;-72
2022/11/09 03:51:50;;;;;;;7.50;2.10;;;12.60;75.10;;;;;;5073106;28;20521;-72
2022/11/09 03:54:16;;;;;;;9.60;2.15;;;12.60;75.20;;;;;;5052839;28;20067;-72
2022/11/09 03:56:42;;;;;;;9.13;2.10;;;12.60;75.20;;;;;;5064533;28;20098;-72
2022/11/09 03:59:07;;;;;;;11.55;2.10;;;12.60;75.30;;;;;;5056331;28;20045;-72
2022/11/09 04:01:33;;;;;;;6.03;1.83;;;12.60;75.40;;;;;;5073101;28;20048;-72
2022/11/09 04:03:59;;;;;;;7.75;2.05;;;12.60;75.50;;;;;;5072600;28;20036;-72
2022/11/09 04:06:24;;;;;;;11.00;2.72;;;12.60;75.60;;;;;;5073053;28;20097;-72
2022/11/09 04:08:50;;;;;;;9.38;1.90;;;12.60;75.70;;;;;;5073002;28;20055;-72
2022/11/09 04:11:16;;;;;;;6.50;2.15;;;12.60;75.70;;;;;;5072934;28;20486;-72
2022/11/09 04:13:42;;;;;;;9.50;2.03;;;12.60;75.80;;;;;;5072572;28;20047;-72
2022/11/09 04:16:07;;;;;;;6.35;1.70;;;12.50;75.90;;;;;;5055845;28;20068;-72
2022/11/09 04:18:33;;;;;;;4.95;1.90;;;12.50;75.90;;;;;;5072707;28;20032;-72
2022/11/09 04:20:59;;;;;;;7.50;1.83;;;12.50;76.00;;;;;;5055847;28;20033;-72
2022/11/09 04:23:24;;;;;;;9.75;2.92;;;12.50;76.10;;;;;;5072299;28;20543;-72
2022/11/09 04:25:50;;;;;;;9.73;2.20;;;12.50;76.10;;;;;;5072451;28;20052;-72
2022/11/09 04:28:15;;;;;;;8.80;1.95;;;12.50;76.20;;;;;;5039319;28;20040;-72
2022/11/09 04:30:42;;;;;;;9.02;2.47;;;12.50;76.30;;;;;;5056053;28;20048;-72
2022/11/09 04:33:08;;;;;;;6.35;2.53;;;12.50;76.30;;;;;;5065818;28;20049;-71
2022/11/09 04:35:35;;;;;;;5.47;1.77;;;12.50;76.40;;;;;;5035903;28;20039;-72
2022/11/09 04:38:03;;;;;;;11.02;2.20;;;12.40;76.40;;;;;;5036841;28;20040;-72
2022/11/09 04:40:31;;;;;;;10.95;2.25;;;12.40;76.50;;;;;;5052468;28;20048;-72
2022/11/09 04:43:05;;;;;;;8.38;1.95;;;12.50;76.70;;;;;;5068515;28;20131;-72
2022/11/09 04:45:32;;;;;;;7.65;1.90;;;12.40;76.80;;;;;;5036184;28;20041;-71
2022/11/09 04:48:03;;;;;;;11.45;2.92;;;12.40;76.90;;;;;;5071783;28;20040;-71
2022/11/09 04:50:29;;;;;;;8.73;2.15;;;12.40;77.00;;;;;;5052488;28;20067;-71
2022/11/09 04:53:06;;;;;;;8.10;2.40;;;12.40;77.10;;;;;;5046105;28;20403;-72
2022/11/09 04:55:31;;;;;;;7.20;2.75;;;12.50;77.20;;;;;;5035826;28;20048;-71
2022/11/09 04:57:57;;;;;;;8.57;2.80;;;12.50;77.30;;;;;;5049696;28;20404;-71
2022/11/09 05:00:23;;;;;;;8.25;1.92;;;12.50;77.30;;;;;;5052892;28;20040;-71
2022/11/09 05:02:48;;;;;;;8.20;2.45;;;12.50;77.30;;;;;;5071536;28;20055;-71
2022/11/09 05:05:14;;;;;;;5.13;1.75;;;12.50;77.20;;;;;;5054919;28;20063;-73
2022/11/09 05:07:39;;;;;;;6.15;1.80;;;12.50;77.20;;;;;;5055047;28;20388;-73
2022/11/09 05:10:06;;;;;;;9.35;2.38;;;12.50;77.20;;;;;;5051950;28;20045;-72
2022/11/09 05:12:31;;;;;;;12.63;2.33;;;12.50;77.20;;;;;;5044870;28;20032;-72
2022/11/09 05:14:57;;;;;;;10.60;2.40;;;12.50;77.20;;;;;;5045897;28;20044;-72
2022/11/09 05:17:22;;;;;;;6.80;2.55;;;12.50;77.20;;;;;;5058174;28;20091;-73
2022/11/09 05:19:48;;;;;;;8.95;2.00;;;12.50;77.20;;;;;;5071925;28;20044;-73
2022/11/09 05:24:58;;;;;;;7.00;2.08;;;12.50;77.10;;;;;;5069105;28;20039;-72
2022/11/09 05:27:24;;;;;;;11.52;2.30;;;12.50;77.10;;;;;;5058171;28;20035;-72
2022/11/09 05:29:50;;;;;;;6.93;2.03;;;12.50;77.00;;;;;;5070134;28;20044;-72
2022/11/09 05:32:15;;;;;;;7.72;2.50;;;12.50;76.90;;;;;;5091276;28;20040;-72
2022/11/09 05:34:41;;;;;;;7.38;1.92;;;12.50;76.90;;;;;;5057826;28;20044;-77
2022/11/09 05:37:06;;;;;;;9.70;2.00;;;12.50;76.90;;;;;;5072472;28;20066;-78
2022/11/09 05:39:32;;;;;;;9.52;2.50;;;12.50;76.90;;;;;;5058506;28;20044;-78
2022/11/09 05:41:58;;;;;;;8.77;2.17;;;12.50;76.90;;;;;;5075114;28;20430;-78
2022/11/09 05:44:23;;;;;;;5.35;1.85;;;12.50;76.80;;;;;;5058564;28;20044;-78
2022/11/09 05:46:49;;;;;;;9.73;2.25;;;12.50;76.80;;;;;;5066118;28;20459;-78
2022/11/09 05:49:14;;;;;;;8.32;2.42;;;12.50;76.80;;;;;;5054899;28;20039;-78
2022/11/09 05:51:40;;;;;;;8.20;2.53;;;12.40;76.70;;;;;;5055103;28;20105;-78
2022/11/09 05:54:06;;;;;;;7.75;2.13;;;12.40;76.70;;;;;;5043682;28;20072;-78
2022/11/09 05:56:31;;;;;;;9.30;2.20;;;12.40;76.70;;;;;;5054411;28;20044;-78
2022/11/09 05:58:57;;;;;;;8.32;2.25;;;12.40;77.10;;;;;;5075095;28;20039;-78
2022/11/09 06:01:22;;;;;;;7.95;1.88;;;12.40;76.80;;;;;;5074330;28;20036;-78
2022/11/09 06:03:48;;;;;;;7.63;2.42;;;12.40;76.80;;;;;;5057828;28;20044;-80
2022/11/09 06:06:15;;;;;;;8.35;2.53;;;12.40;76.80;;;;;;5057903;28;20407;-77
2022/11/09 06:08:41;;;;;;;10.38;2.35;;;12.30;76.80;;;;;;5074884;28;20055;-77
2022/11/09 06:11:09;;;;;;;8.10;2.45;;;12.40;76.80;;;;;;5074044;28;20394;-77
2022/11/09 06:13:35;;;;;;;7.80;1.92;;;12.30;76.70;;;;;;5071154;28;20083;-77
2022/11/09 06:16:03;;;;;;;7.20;2.28;;;12.30;76.70;;;;;;5054622;28;20072;-77
2022/11/09 06:18:30;;;;;;;10.85;2.08;;;12.30;76.80;;;;;;5073579;28;20031;-78
2022/11/09 06:20:59;;;;;;;8.15;1.98;;;12.30;76.80;;;;;;5077284;28;20505;-77
2022/11/09 06:23:25;;;;;;;11.10;1.98;;;12.30;76.80;;;;;;5061752;28;20044;-77
2022/11/09 06:26:08;;;;;;;6.32;1.75;;;12.30;76.80;;;;;;5070550;28;20052;-77
2022/11/09 06:28:35;;;;;;;8.40;2.15;;;12.30;76.70;;;;;;5064064;28;20132;-77
2022/11/09 06:31:03;;;;;;;8.43;2.28;;;12.30;76.70;;;;;;5078690;28;20335;-77
2022/11/09 06:33:33;;;;;;;10.45;2.00;;;12.30;76.70;;;;;;5077964;28;20115;-77
2022/11/09 06:36:00;;;;;;;7.18;1.85;;;12.30;76.60;;;;;;5061865;28;20078;-77
2022/11/09 06:38:26;;;;;;;9.65;2.63;;;12.30;76.60;;;;;;5078164;28;20079;-77
2022/11/09 06:40:52;;;;;;;9.40;2.58;;;12.30;76.50;;;;;;5078535;28;20076;-77
2022/11/09 06:43:18;;;;;;;12.52;2.67;;;12.30;76.50;;;;;;5077859;28;20499;-77
2022/11/09 06:45:44;;;;;;;8.95;2.25;;;12.30;76.40;;;;;;5078122;28;20046;-77
2022/11/09 06:48:10;;;;;;;8.10;1.92;;;12.30;76.30;;;;;;5078240;28;20036;-77
2022/11/09 06:50:35;;;;;;;10.20;2.13;;;12.30;76.30;;;;;;5077901;28;20040;-77
2022/11/09 06:53:07;;;;;;;8.40;1.95;;;12.20;76.30;;;;;;5060961;28;20402;-77
2022/11/09 06:55:34;;;;;;;11.88;2.38;;;12.30;76.30;;;;;;5077796;28;20080;-77
2022/11/09 06:58:04;;;;;;;9.10;2.63;;;12.30;76.30;;;;;;5066997;28;20036;-76
2022/11/09 07:00:30;;;;;;;9.93;2.95;;;12.20;76.20;;;;;;5077293;28;20051;-77
2022/11/09 07:02:55;;;;;;;12.85;2.53;;;12.20;76.20;;;;;;5077589;28;20044;-78
2022/11/09 07:05:21;;;;;;;8.88;2.00;;;12.20;76.20;;;;;;5077324;28;20048;-77
2022/11/09 07:07:47;;;;;;;11.80;2.42;;;12.20;76.20;;;;;;5060005;28;20044;-77
2022/11/09 07:10:13;;;;;;;7.28;1.95;;;12.20;76.20;;;;;;5060089;28;20122;-77
2022/11/09 07:12:40;;;;;;;5.25;1.60;;;12.20;76.20;;;;;;5077241;28;20487;-77
2022/11/09 07:15:06;;;;;;;10.77;1.90;;;12.20;76.20;;;;;;5043216;28;20044;-77
2022/11/09 07:17:33;;;;;;;9.90;2.50;;;12.20;76.20;;;;;;5024473;28;20037;-77
2022/11/09 07:19:59;;;;;;;8.60;2.15;;;12.20;76.20;;;;;;5074015;28;20028;-77
2022/11/09 07:22:27;;;;;;;11.55;2.67;;;12.20;76.30;;;;;;5074190;28;20098;-77
2022/11/09 07:24:52;;;;;;;9.73;2.30;;;12.20;76.40;;;;;;5077126;28;20062;-77
2022/11/09 07:27:18;;;;;;;9.00;2.55;;;12.10;76.40;;;;;;5077319;28;20542;-77
2022/11/09 07:29:44;;;;;;;9.25;2.10;;;12.20;76.50;;;;;;5060464;28;20123;-77
2022/11/09 07:32:09;;;;;;;10.70;2.30;;;12.10;76.50;;;;;;5059270;28;20040;-77
2022/11/09 07:34:35;;;;;;;8.68;2.22;;;12.20;76.60;;;;;;5076673;28;20075;-72
2022/11/09 07:37:00;;;;;;;11.73;2.47;;;12.20;76.70;;;;;;5077171;28;20082;-72
2022/11/09 07:39:26;;;;;;;11.38;2.90;;;12.20;76.80;;;;;;5060207;28;20036;-72
2022/11/09 07:41:52;;;;;;;12.02;2.85;;;12.20;76.80;;;;;;5043934;28;20468;-72
2022/11/09 07:44:17;;;;;;;8.50;2.20;;;12.20;76.90;;;;;;5069472;28;20480;-72
2022/11/09 07:46:46;;;;;;;8.82;2.30;;;12.20;77.50;;;;;;5057043;28;20446;-72
2022/11/09 07:49:12;;;;;;;10.93;1.90;;;12.20;77.20;;;;;;5061646;28;20464;-72
2022/11/09 07:51:38;;;;;;;7.82;2.60;;;12.30;77.30;;;;;;5060122;28;20054;-72
2022/11/09 07:54:04;;;;;;;5.95;2.00;;;12.30;77.20;;;;;;5076263;28;20062;-72
2022/11/09 07:56:30;;;;;;;10.80;2.63;;;12.40;77.20;;;;;;5076610;28;20128;-72
2022/11/09 07:58:55;;;;;;;10.35;2.85;;;12.40;77.10;;;;;;5043225;28;20082;-72
2022/11/09 08:01:21;;;;;;;8.50;1.80;;;12.50;77.00;;;;;;5076581;28;20101;-72
2022/11/09 08:03:47;;;;;;;6.97;1.77;;;12.50;76.90;;;;;;5056089;28;20044;-77
2022/11/09 08:06:13;;;;;;;8.00;2.40;;;12.60;76.80;;;;;;5076177;28;20376;-77
2022/11/09 08:08:38;;;;;;;9.82;2.17;;;12.70;76.70;;;;;;5076633;28;20510;-77
2022/11/09 08:11:04;;;;;;;9.05;1.90;;;12.80;76.50;;;;;;5060011;28;20376;-77
2022/11/09 08:13:30;;;;;;;10.68;2.72;;;12.80;76.30;;;;;;5076418;28;20422;-77
2022/11/09 08:15:55;;;;;;;7.40;2.15;;;12.90;76.20;;;;;;5056710;28;20206;-77
2022/11/09 08:18:22;;;;;;;13.23;2.60;;;13.00;76.10;;;;;;5093589;28;20431;-77
2022/11/09 08:20:48;;;;;;;8.57;2.05;;;13.10;75.80;;;;;;5076227;28;20040;-77
2022/11/09 08:23:15;;;;;;;10.88;2.35;;;13.20;75.50;;;;;;5075973;28;20048;-77
2022/11/09 08:25:42;;;;;;;9.55;2.50;;;13.40;75.30;;;;;;5075905;28;20402;-77
2022/11/09 08:28:07;;;;;;;10.55;2.88;;;13.40;75.10;;;;;;5075990;28;20040;-77
2022/11/09 08:30:33;;;;;;;9.10;2.45;;;13.50;74.80;;;;;;5075644;28;20044;-77
2022/11/09 08:33:00;;;;;;;10.20;2.22;;;13.70;75.20;;;;;;5076266;28;20040;-77
2022/11/09 08:35:27;;;;;;;8.10;2.30;;;13.80;74.30;;;;;;5058984;28;20036;-77
2022/11/09 08:37:53;;;;;;;12.05;2.10;;;13.90;74.00;;;;;;5076331;28;20364;-77
2022/11/09 08:40:22;;;;;;;7.03;1.77;;;14.00;73.70;;;;;;5074820;28;20028;-77
2022/11/09 08:42:48;;;;;;;10.65;3.22;;;14.10;73.50;;;;;;5075166;28;20040;-77
2022/11/09 08:45:14;;;;;;;9.70;2.33;;;14.20;73.20;;;;;;5074985;28;20085;-77
2022/11/09 08:47:40;;;;;;;11.05;2.80;;;14.30;73.00;;;;;;5076108;28;20107;-77
2022/11/09 08:50:07;;;;;;;11.63;2.55;;;14.40;72.80;;;;;;5075660;28;20035;-77
2022/11/09 08:52:34;;;;;;;7.63;2.63;;;14.60;72.40;;;;;;5075573;28;20040;-77
2022/11/09 08:54:59;;;;;;;9.18;1.95;;;14.70;72.50;;;;;;5075223;28;20048;-77
2022/11/09 08:57:25;;;;;;;8.95;2.33;;;14.70;71.80;;;;;;5055465;28;20043;-77
2022/11/09 08:59:51;;;;;;;11.00;2.40;;;14.90;71.50;;;;;;5056596;28;20114;-77
2022/11/09 09:02:17;;;;;;;11.95;3.03;;;15.00;71.10;;;;;;5075747;28;20075;-77
2022/11/09 09:04:43;;;;;;;6.65;2.05;;;15.00;70.80;;;;;;5074830;28;20040;-78
2022/11/09 09:07:09;;;;;;;11.60;2.50;;;15.10;70.40;;;;;;5058686;28;20044;-78
2022/11/09 09:09:38;;;;;;;9.00;2.95;;;15.10;70.00;;;;;;5075556;28;20513;-73
2022/11/09 09:12:08;;;;;;;6.93;1.98;;;15.10;69.60;;;;;;5040702;28;20491;-71
2022/11/09 09:14:34;;;;;;;9.88;2.72;;;15.20;69.60;;;;;;5074913;28;20046;-71
2022/11/09 09:17:00;;;;;;;11.77;3.28;;;15.20;69.60;;;;;;5058874;28;20036;-71
2022/11/09 09:19:26;;;;;;;8.30;3.03;;;15.20;69.30;;;;;;5072016;28;20480;-72
2022/11/09 09:21:51;;;;;;;8.82;3.30;;;15.20;69.20;;;;;;5052910;28;20046;-72
2022/11/09 09:24:17;;;;;;;8.88;2.50;;;15.20;69.30;;;;;;5054541;28;20057;-72
2022/11/09 09:26:46;;;;;;;10.45;3.03;;;15.20;69.20;;;;;;5071506;28;20565;-72
2022/11/09 09:29:12;;;;;;;11.60;2.65;;;15.20;69.10;;;;;;5071628;28;20050;-71
2022/11/09 09:31:41;;;;;;;11.98;2.75;;;15.20;68.90;;;;;;5071394;28;20066;-71
2022/11/09 09:34:07;;;;;;;11.63;2.40;;;15.20;68.80;;;;;;5071869;28;20067;-71
2022/11/09 09:36:34;;;;;;;11.68;3.50;;;15.20;68.90;;;;;;5071384;28;20498;-71
2022/11/09 09:39:00;;;;;;;7.93;2.40;;;15.20;68.70;;;;;;5071514;28;20123;-71
2022/11/09 09:41:53;;;;;;;10.10;2.70;;;15.30;68.60;;;;;;5054897;28;20124;-71
2022/11/09 09:44:33;;;;;;;11.15;3.00;;;15.30;68.70;;;;;;5071075;28;20563;-71
2022/11/09 09:47:28;;;;;;;10.75;3.30;;;15.20;68.80;;;;;;5071230;28;20083;-71
2022/11/09 09:50:13;;;;;;;9.88;2.78;;;15.20;68.60;;;;;;5060976;28;20044;-71
2022/11/09 09:52:48;;;;;;;6.70;2.10;;;15.10;68.80;;;;;;5071221;28;20039;-72
2022/11/09 09:55:36;;;;;;;9.02;2.55;;;15.20;68.80;;;;;;5072705;28;20125;-72
2022/11/09 09:58:12;;;;;;;12.88;3.28;;;15.10;68.80;;;;;;5058856;28;20369;-72
2022/11/09 10:00:40;;;;;;;12.13;3.13;;;15.10;68.80;;;;;;5075468;28;20111;-72
2022/11/09 10:03:18;;;;;;;12.32;3.50;;;15.00;68.80;;;;;;5075413;28;20133;-71
2022/11/09 10:05:57;;;;;;;9.98;3.10;;;15.00;68.60;;;;;;5072363;28;20045;-72
2022/11/09 10:08:31;;;;;;;9.82;2.30;;;15.00;69.30;;;;;;5055673;28;20041;-72
2022/11/09 10:11:12;;;;;;;10.55;3.65;;;14.90;68.90;;;;;;5038672;28;20048;-72
2022/11/09 10:14:00;;;;;;;12.82;3.58;;;14.90;69.00;;;;;;5056413;28;20554;-71
2022/11/09 10:16:45;;;;;;;9.30;2.30;;;14.90;69.10;;;;;;5074995;28;20036;-72
2022/11/09 10:19:23;;;;;;;8.32;2.63;;;14.90;69.10;;;;;;5075419;28;20119;-71
2022/11/09 10:22:11;;;;;;;12.07;3.78;;;14.90;69.30;;;;;;5074775;28;20059;-71
2022/11/09 10:24:49;;;;;;;11.20;2.95;;;14.90;69.50;;;;;;5071475;28;20103;-72
2022/11/09 10:27:35;;;;;;;8.85;2.83;;;14.80;69.50;;;;;;5062879;28;20048;-71
2022/11/09 10:30:15;;;;;;;8.90;2.60;;;14.80;69.30;;;;;;5074955;28;20048;-71
2022/11/09 10:32:44;;;;;;;13.48;3.92;;;14.80;69.60;;;;;;5074719;28;20044;-72
2022/11/09 10:35:19;;;;;;;11.25;2.78;;;14.80;69.60;;;;;;5074993;28;20059;-72
2022/11/09 10:37:51;;;;;;;11.00;2.67;;;14.90;69.70;;;;;;5074829;28;20033;-72
2022/11/09 10:40:30;;;;;;;10.57;2.80;;;14.90;69.70;;;;;;5074703;28;20068;-72
2022/11/09 10:43:01;;;;;;;9.02;2.95;;;14.90;69.60;;;;;;5074707;28;20045;-72
2022/11/09 10:45:33;;;;;;;9.50;3.10;;;14.90;69.40;;;;;;5074497;28;20040;-77
2022/11/09 10:48:00;;;;;;;9.23;3.40;;;14.90;69.20;;;;;;5057858;28;20045;-77
2022/11/09 10:50:40;;;;;;;10.57;2.83;;;14.90;69.10;;;;;;5074898;28;20146;-77
2022/11/09 10:53:09;;;;;;;11.15;3.10;;;14.90;68.90;;;;;;5074519;28;20182;-77
2022/11/09 10:55:35;;;;;;;12.50;3.15;;;14.90;69.00;;;;;;5074588;28;20090;-77
2022/11/09 10:58:31;;;;;;;13.93;3.85;;;14.90;69.20;;;;;;5074542;28;20044;-77
2022/11/09 11:01:05;;;;;;;10.80;3.75;;;14.90;68.60;;;;;;5074696;28;20505;-77
2022/11/09 11:03:35;;;;;;;8.95;3.20;;;14.90;68.90;;;;;;5074288;28;20048;-77
2022/11/09 11:06:02;;;;;;;9.50;2.88;;;14.90;68.90;;;;;;5057554;28;20082;-77
2022/11/09 11:08:37;;;;;;;8.45;2.95;;;14.90;69.00;;;;;;5074336;28;20045;-77
2022/11/09 11:11:22;;;;;;;6.78;2.72;;;14.90;69.20;;;;;;5074596;28;20127;-77
2022/11/09 11:13:49;;;;;;;13.15;3.45;;;14.90;69.30;;;;;;5072351;28;20044;-77
2022/11/09 11:16:27;;;;;;;8.15;2.92;;;14.90;69.40;;;;;;5074289;28;20514;-77
2022/11/09 11:18:54;;;;;;;10.52;3.25;;;14.90;69.30;;;;;;5070849;28;20496;-77
2022/11/09 11:21:22;;;;;;;9.70;3.00;;;14.90;69.40;;;;;;5054334;28;20419;-77
2022/11/09 11:24:11;;;;;;;9.15;3.05;;;14.90;69.10;;;;;;5051832;28;20092;-77
2022/11/09 11:27:00;;;;;;;9.18;3.20;;;14.90;68.80;;;;;;5074362;28;20388;-77
2022/11/09 11:29:44;;;;;;;6.78;2.30;;;14.90;68.90;;;;;;5073859;28;20495;-77
2022/11/09 11:32:18;;;;;;;10.18;2.85;;;14.90;68.90;;;;;;5074189;28;20450;-76
2022/11/09 11:34:44;;;;;;;11.82;3.03;;;14.90;68.80;;;;;;5062290;28;20110;-77
2022/11/09 11:37:28;;;;;;;11.07;3.20;;;14.80;68.90;;;;;;5040630;28;20076;-77
2022/11/09 11:40:04;;;;;;;8.88;3.35;;;14.90;68.80;;;;;;5073994;28;20036;-77
2022/11/09 11:42:49;;;;;;;9.38;3.03;;;14.90;68.90;;;;;;5073778;28;20041;-77
2022/11/09 11:45:40;;;;;;;9.05;2.85;;;14.90;68.80;;;;;;5073803;28;20051;-76
2022/11/09 11:48:28;;;;;;;8.70;2.55;;;14.90;68.90;;;;;;5073830;28;20036;-77
2022/11/09 11:51:17;;;;;;;10.02;2.92;;;14.80;68.70;;;;;;5057027;28;20044;-77
2022/11/09 11:54:15;;;;;;;10.43;2.63;;;14.80;68.80;;;;;;5073474;28;20500;-77
2022/11/09 11:56:46;;;;;;;7.97;2.63;;;14.80;68.70;;;;;;5053506;28;20041;-77
2022/11/09 11:59:33;;;;;;;10.63;3.25;;;14.80;68.90;;;;;;5066197;28;20045;-77
2022/11/09 12:02:08;;;;;;;10.50;2.67;;;14.80;68.70;;;;;;5073528;28;20479;-77
2022/11/09 12:04:52;;;;;;;10.18;2.55;;;14.70;68.80;;;;;;5073037;28;20044;-77
2022/11/09 12:07:26;;;;;;;10.75;2.78;;;14.80;68.80;;;;;;5073347;28;20044;-77
2022/11/09 12:10:10;;;;;;;6.60;2.90;;;14.70;69.00;;;;;;5073139;28;20076;-77
2022/11/09 12:13:03;;;;;;;10.63;2.95;;;14.70;69.20;;;;;;5073170;28;20123;-76
2022/11/09 12:15:34;;;;;;;12.25;2.72;;;14.70;69.00;;;;;;5073008;28;20146;-76
2022/11/09 12:18:12;;;;;;;9.05;2.40;;;14.70;69.00;;;;;;5072259;28;20127;-78
2022/11/09 12:21:12;;;;;;;9.38;2.42;;;14.70;68.70;;;;;;5073306;28;20044;-77
2022/11/09 12:23:45;;;;;;;10.07;2.40;;;14.70;68.60;;;;;;5072632;28;20053;-76
2022/11/09 12:26:55;;;;;;;8.48;2.15;;;14.70;68.60;;;;;;5073086;28;20046;-78
2022/11/09 12:29:31;;;;;;;6.95;2.08;;;14.70;68.40;;;;;;5073043;28;20411;-77
2022/11/09 12:32:27;;;;;;;9.07;2.33;;;14.70;68.50;;;;;;5072855;28;20037;-75
2022/11/09 12:35:25;;;;;;;9.60;2.30;;;14.70;68.40;;;;;;5072631;28;20127;-76
2022/11/09 12:38:20;;;;;;;9.23;2.20;;;14.70;68.50;;;;;;5072516;28;20365;-76
2022/11/09 12:41:12;;;;;;;6.22;2.00;;;14.60;68.20;;;;;;5052542;28;20045;-75
2022/11/09 12:43:43;;;;;;;9.07;2.17;;;14.60;68.30;;;;;;5071225;28;20041;-77
2022/11/09 12:46:12;;;;;;;5.35;1.60;;;14.60;68.30;;;;;;5055632;28;20040;-77
2022/11/09 12:48:38;;;;;;;7.40;2.13;;;14.60;67.90;;;;;;5039138;28;20483;-77
2022/11/09 12:51:05;;;;;;;5.20;1.60;;;14.60;67.00;;;;;;5072665;28;20032;-76
2022/11/09 12:53:36;;;;;;;8.57;2.00;;;14.60;67.10;;;;;;5072128;28;20115;-76
2022/11/09 12:56:30;;;;;;;6.82;1.85;;;14.50;67.10;;;;;;5036078;28;20029;-76
2022/11/09 12:59:19;;;;;;;6.32;1.60;;;14.50;67.20;;;;;;5055209;28;20040;-77